createdAt,value
2023-04-09T00:00:41.683Z,16.73
2023-04-09T00:05:44.564Z,17.33
2023-04-09T00:10:47.231Z,16.02
2023-04-09T00:15:50.129Z,16.77
2023-04-09T00:20:52.741Z,16.13
2023-04-09T00:25:55.412Z,18.58
2023-04-09T00:30:58.002Z,16.87
2023-04-09T00:36:00.656Z,14.52
2023-04-09T00:41:03.567Z,16.92
2023-04-09T00:46:06.523Z,17.10
2023-04-09T00:51:09.466Z,22.20
2023-04-09T00:56:13.764Z,22.27
2023-04-09T01:01:16.644Z,23.10
2023-04-09T01:06:46.310Z,23.92
2023-04-09T01:12:18.564Z,21.13
2023-04-09T01:17:34.112Z,17.55
2023-04-09T01:22:50.489Z,17.60
2023-04-09T01:28:17.169Z,15.60
2023-04-09T01:33:21.680Z,16.08
2023-04-09T01:38:25.852Z,16.15
2023-04-09T01:43:28.957Z,17.40
2023-04-09T01:48:33.478Z,15.97
2023-04-09T01:53:36.973Z,15.93
2023-04-09T01:58:41.141Z,18.25
2023-04-09T02:03:55.684Z,15.43
2023-04-09T02:09:00.874Z,15.70
2023-04-09T02:14:04.695Z,17.90
2023-04-09T02:19:07.290Z,15.07
2023-04-09T02:24:10.141Z,16.65
2023-04-09T02:29:13.503Z,18.13
2023-04-09T02:34:16.090Z,17.45
2023-04-09T02:39:19.220Z,15.63
2023-04-09T02:44:22.061Z,17.52
2023-04-09T02:49:24.910Z,18.17
2023-04-09T02:54:27.650Z,16.00
2023-04-09T02:59:30.309Z,18.17
2023-04-09T03:04:33.067Z,16.07
2023-04-09T03:09:35.889Z,18.30
2023-04-09T03:14:38.448Z,17.70
2023-04-09T03:19:41.108Z,17.05
2023-04-09T03:24:44.076Z,16.27
2023-04-09T03:29:47.307Z,17.27
2023-04-09T03:34:51.179Z,16.20
2023-04-09T03:39:56.756Z,17.10
2023-04-09T03:45:02.804Z,17.85
2023-04-09T03:50:11.212Z,17.58
2023-04-09T03:55:22.988Z,19.17
2023-04-09T04:00:26.944Z,18.65
2023-04-09T04:05:49.236Z,17.05
2023-04-09T04:10:52.775Z,17.85
2023-04-09T04:15:56.373Z,17.73
2023-04-09T04:21:00.030Z,18.57
2023-04-09T04:26:10.148Z,19.15
2023-04-09T04:31:13.686Z,18.58
2023-04-09T04:36:17.031Z,18.08
2023-04-09T04:41:26.260Z,18.33
2023-04-09T04:46:43.953Z,19.80
2023-04-09T04:51:47.317Z,20.75
2023-04-09T04:56:51.921Z,19.95
2023-04-09T05:02:09.631Z,20.10
2023-04-09T05:07:23.188Z,19.42
2023-04-09T05:12:32.529Z,20.67
2023-04-09T05:17:36.654Z,20.08
2023-04-09T05:22:40.333Z,17.73
2023-04-09T05:27:43.698Z,18.00
2023-04-09T05:32:47.006Z,18.73
2023-04-09T05:37:51.563Z,18.37
2023-04-09T05:42:54.346Z,18.15
2023-04-09T05:48:04.797Z,18.60
2023-04-09T05:53:07.917Z,17.30
2023-04-09T05:58:16.343Z,18.52
2023-04-09T06:03:19.474Z,16.77
2023-04-09T06:08:22.939Z,17.08
2023-04-09T06:13:26.069Z,15.23
2023-04-09T06:18:29.024Z,14.25
2023-04-09T06:23:32.366Z,15.75
2023-04-09T06:28:35.087Z,13.53
2023-04-09T06:33:37.858Z,15.52
2023-04-09T06:38:40.706Z,15.82
2023-04-09T06:43:43.467Z,14.95
2023-04-09T06:48:46.903Z,18.30
2023-04-09T06:53:50.052Z,19.00
2023-04-09T06:58:52.997Z,14.88
2023-04-09T07:03:56.244Z,18.02
2023-04-09T07:08:59.385Z,18.30
2023-04-09T07:14:02.044Z,17.67
2023-04-09T07:19:06.580Z,16.70
2023-04-09T07:24:09.701Z,11.35
2023-04-09T07:29:12.882Z,17.80
2023-04-09T07:34:15.867Z,16.17
2023-04-09T07:39:19.644Z,14.32
2023-04-09T07:44:22.648Z,15.40
2023-04-09T07:49:25.503Z,12.38
2023-04-09T07:54:28.780Z,14.02
2023-04-09T07:59:31.995Z,12.10
2023-04-09T08:04:35.030Z,12.32
2023-04-09T08:09:37.882Z,11.50
2023-04-09T08:14:41.617Z,12.25
2023-04-09T08:19:44.475Z,11.68
2023-04-09T08:24:52.238Z,12.23
2023-04-09T08:29:55.063Z,11.50
2023-04-09T08:34:57.944Z,12.60
2023-04-09T08:40:00.955Z,13.07
2023-04-09T08:45:07.246Z,12.45
2023-04-09T08:50:10.462Z,11.88
2023-04-09T08:55:13.526Z,10.98
2023-04-09T09:00:16.245Z,10.37
2023-04-09T09:05:37.122Z,9.73
2023-04-09T09:10:39.948Z,9.82
2023-04-09T09:15:42.848Z,9.55
2023-04-09T09:20:45.906Z,10.20
2023-04-09T09:25:48.582Z,9.47
2023-04-09T09:30:52.061Z,9.95
2023-04-09T09:35:57.961Z,9.10
2023-04-09T09:41:18.168Z,9.80
2023-04-09T09:46:22.490Z,9.80
2023-04-09T09:51:29.915Z,9.53
2023-04-09T09:56:37.403Z,11.00
2023-04-09T10:01:41.535Z,9.57
2023-04-09T10:06:45.678Z,9.85
2023-04-09T10:11:49.916Z,10.40
2023-04-09T10:16:52.820Z,8.53
2023-04-09T10:22:04.760Z,8.68
2023-04-09T10:27:14.290Z,8.82
2023-04-09T10:32:22.148Z,8.07
2023-04-09T10:37:26.993Z,9.25
2023-04-09T10:42:42.305Z,9.13
2023-04-09T10:47:46.539Z,8.55
2023-04-09T10:52:54.062Z,9.15
2023-04-09T10:57:57.017Z,9.15
2023-04-09T11:03:22.973Z,8.23
2023-04-09T11:08:30.329Z,8.37
2023-04-09T11:13:34.621Z,8.18
2023-04-09T11:18:37.678Z,8.85
2023-04-09T11:23:40.554Z,9.48
2023-04-09T11:28:44.323Z,9.25
2023-04-09T11:33:47.529Z,8.97
2023-04-09T11:38:53.459Z,8.52
2023-04-09T11:43:56.373Z,9.27
2023-04-09T11:48:59.739Z,8.88
2023-04-09T11:54:03.735Z,9.07
2023-04-09T11:59:06.590Z,9.80
2023-04-09T12:04:09.799Z,9.68
2023-04-09T12:09:14.448Z,9.68
2023-04-09T12:14:18.856Z,9.45
2023-04-09T12:19:25.710Z,9.27
2023-04-09T12:24:29.194Z,9.87
2023-04-09T12:29:33.597Z,8.93
2023-04-09T12:34:36.501Z,9.13
2023-04-09T12:39:39.212Z,9.30
2023-04-09T12:44:42.126Z,8.35
2023-04-09T12:49:46.982Z,9.10
2023-04-09T12:54:49.723Z,9.07
2023-04-09T12:59:52.564Z,7.80
2023-04-09T13:04:55.290Z,7.95
2023-04-09T13:09:58.446Z,8.10
2023-04-09T13:15:01.763Z,8.77
2023-04-09T13:20:06.479Z,8.63
2023-04-09T13:25:09.535Z,8.18
2023-04-09T13:30:12.577Z,8.38
2023-04-09T13:35:15.582Z,7.57
2023-04-09T13:40:18.444Z,7.53
2023-04-09T13:45:24.603Z,7.25
2023-04-09T13:50:27.310Z,6.50
2023-04-09T13:55:31.179Z,6.95
2023-04-09T14:00:34.746Z,7.05
2023-04-09T14:05:37.595Z,6.57
2023-04-09T14:10:40.503Z,6.70
2023-04-09T14:15:45.577Z,5.72
2023-04-09T14:20:48.362Z,6.78
2023-04-09T14:25:51.560Z,7.28
2023-04-09T14:30:54.628Z,6.80
2023-04-09T14:35:59.047Z,6.90
2023-04-09T14:41:02.169Z,7.10
2023-04-09T14:46:06.618Z,6.20
2023-04-09T14:51:12.548Z,6.57
2023-04-09T14:56:15.257Z,6.93
2023-04-09T15:01:18.103Z,6.65
2023-04-09T15:06:21.053Z,6.70
2023-04-09T15:11:24.185Z,6.70
2023-04-09T15:16:29.266Z,7.13
2023-04-09T15:21:32.069Z,6.07
2023-04-09T15:26:37.697Z,6.35
2023-04-09T15:31:41.565Z,5.78
2023-04-09T15:36:46.312Z,6.13
2023-04-09T15:41:49.110Z,6.30
2023-04-09T15:46:52.018Z,6.20
2023-04-09T15:51:54.815Z,7.03
2023-04-09T15:56:57.901Z,7.10
2023-04-09T16:02:01.081Z,6.22
2023-04-09T16:07:04.505Z,8.43
2023-04-09T16:12:07.447Z,6.90
2023-04-09T16:17:13.464Z,6.57
2023-04-09T16:22:16.823Z,6.68
2023-04-09T16:27:19.840Z,7.43
2023-04-09T16:32:22.871Z,6.90
2023-04-09T16:37:25.696Z,7.17
2023-04-09T16:42:30.503Z,7.32
2023-04-09T16:47:33.561Z,8.32
2023-04-09T16:52:39.806Z,9.10
2023-04-09T16:57:43.167Z,8.40
2023-04-09T17:02:46.549Z,8.87
2023-04-09T17:07:49.589Z,7.97
2023-04-09T17:12:52.222Z,9.25
2023-04-09T17:17:55.477Z,8.85
2023-04-09T17:22:58.458Z,9.10
2023-04-09T17:28:01.940Z,8.97
2023-04-09T17:33:04.913Z,9.50
2023-04-09T17:38:07.619Z,8.73
2023-04-09T17:43:10.408Z,9.50
2023-04-09T17:48:13.100Z,10.35
2023-04-09T17:53:15.800Z,10.30
2023-04-09T17:58:18.478Z,11.05
2023-04-09T18:03:21.933Z,11.82
2023-04-09T18:08:25.747Z,12.77
2023-04-09T18:13:28.727Z,13.13
2023-04-09T18:18:31.635Z,12.97
2023-04-09T18:23:34.773Z,13.82
2023-04-09T18:28:37.767Z,13.55
2023-04-09T18:33:40.860Z,13.57
2023-04-09T18:38:44.510Z,13.43
2023-04-09T18:43:48.621Z,13.33
2023-04-09T18:48:51.937Z,13.00
2023-04-09T18:53:55.090Z,13.80
2023-04-09T18:58:57.910Z,13.80
2023-04-09T19:04:01.124Z,13.50
2023-04-09T19:09:04.926Z,15.33
2023-04-09T19:14:07.771Z,13.43
2023-04-09T19:19:12.161Z,14.95
2023-04-09T19:24:14.969Z,13.20
2023-04-09T19:29:17.857Z,13.23
2023-04-09T19:34:20.786Z,12.07
2023-04-09T19:39:23.795Z,12.38
2023-04-09T19:44:26.683Z,11.27
2023-04-09T19:49:29.682Z,11.00
2023-04-09T19:54:34.522Z,11.80
2023-04-09T19:59:40.097Z,11.33
2023-04-09T20:04:43.496Z,12.38
2023-04-09T20:09:47.201Z,15.45
2023-04-09T20:14:50.326Z,19.05
2023-04-09T20:19:53.870Z,17.38
2023-04-09T20:24:56.982Z,16.17
2023-04-09T20:29:59.949Z,17.52
2023-04-09T20:35:02.733Z,16.60
2023-04-09T20:40:06.044Z,17.10
2023-04-09T20:45:09.840Z,16.77
2023-04-09T20:50:12.858Z,17.17
2023-04-09T20:55:16.320Z,16.40
2023-04-09T21:00:19.529Z,16.13
2023-04-09T21:05:24.237Z,17.77
2023-04-09T21:10:27.634Z,17.60
2023-04-09T21:15:30.723Z,15.87
2023-04-09T21:20:33.560Z,15.80
2023-04-09T21:25:36.430Z,15.15
2023-04-09T21:30:39.248Z,15.40
2023-04-09T21:35:42.059Z,14.20
2023-04-09T21:40:47.076Z,14.67
2023-04-09T21:45:49.827Z,15.35
2023-04-09T21:50:54.172Z,13.80
2023-04-09T21:55:56.953Z,14.05
2023-04-09T22:00:59.740Z,15.05
2023-04-09T22:06:02.755Z,14.30
2023-04-09T22:11:06.260Z,15.70
2023-04-09T22:16:09.394Z,15.95
2023-04-09T22:21:18.804Z,15.90
2023-04-09T22:26:22.288Z,15.25
2023-04-09T22:31:27.600Z,14.83
2023-04-09T22:36:30.351Z,14.52
2023-04-09T22:41:33.142Z,14.95
2023-04-09T22:46:36.882Z,14.88
2023-04-09T22:51:41.715Z,13.88
2023-04-09T22:56:45.025Z,14.43
2023-04-09T23:01:47.797Z,14.55
2023-04-09T23:06:50.763Z,14.52
2023-04-09T23:11:53.644Z,13.32
2023-04-09T23:16:56.568Z,14.68
2023-04-09T23:21:59.079Z,14.90
2023-04-09T23:27:02.683Z,14.43
2023-04-09T23:32:05.455Z,14.82
2023-04-09T23:37:09.532Z,13.80
2023-04-09T23:42:12.062Z,11.93
2023-04-09T23:47:14.786Z,14.90
2023-04-09T23:52:17.438Z,14.75
2023-04-09T23:57:20.047Z,14.73
